sensor_id;sensor_type;location;lat;lon;timestamp;pressure;altitude;pressure_sealevel;temperature;humidity
43824;BME280;29470;53.550;9.926;2023-07-02T00:00:40;99897.06;;;19.18;83.53
43824;BME280;29470;53.550;9.926;2023-07-02T00:05:43;99896.88;;;18.70;86.03
43824;BME280;29470;53.550;9.926;2023-07-02T00:10:46;99903.38;;;18.88;85.25
43824;BME280;29470;53.550;9.926;2023-07-02T00:15:51;99887.59;;;18.85;84.50
43824;BME280;29470;53.550;9.926;2023-07-02T00:20:54;99896.88;;;18.70;87.52
43824;BME280;29470;53.550;9.926;2023-07-02T00:25:57;99885.91;;;18.89;84.78
43824;BME280;29470;53.550;9.926;2023-07-02T00:31:01;99883.09;;;18.79;85.83
43824;BME280;29470;53.550;9.926;2023-07-02T00:36:04;99886.88;;;18.94;85.01
43824;BME280;29470;53.550;9.926;2023-07-02T00:41:09;99891.22;;;19.32;81.75
43824;BME280;29470;53.550;9.926;2023-07-02T00:46:16;99885.41;;;19.05;82.23
43824;BME280;29470;53.550;9.926;2023-07-02T00:51:23;99880.75;;;19.33;80.97
43824;BME280;29470;53.550;9.926;2023-07-02T00:56:26;99874.69;;;19.36;81.88
43824;BME280;29470;53.550;9.926;2023-07-02T01:01:31;99865.31;;;19.49;81.15
43824;BME280;29470;53.550;9.926;2023-07-02T01:06:39;99878.97;;;19.31;81.51
43824;BME280;29470;53.550;9.926;2023-07-02T01:11:45;99878.03;;;19.28;81.50
43824;BME280;29470;53.550;9.926;2023-07-02T01:16:55;99889.44;;;19.31;82.50
43824;BME280;29470;53.550;9.926;2023-07-02T01:21:59;99886.56;;;19.18;82.79
43824;BME280;29470;53.550;9.926;2023-07-02T01:27:03;99883.00;;;18.75;84.46
43824;BME280;29470;53.550;9.926;2023-07-02T01:32:06;99871.03;;;19.27;81.90
43824;BME280;29470;53.550;9.926;2023-07-02T01:37:11;99876.88;;;19.16;83.07
43824;BME280;29470;53.550;9.926;2023-07-02T01:42:15;99868.34;;;19.24;82.89
43824;BME280;29470;53.550;9.926;2023-07-02T01:47:19;99867.97;;;19.07;82.62
43824;BME280;29470;53.550;9.926;2023-07-02T01:52:23;99877.84;;;19.19;82.33
43824;BME280;29470;53.550;9.926;2023-07-02T01:57:26;99868.41;;;19.29;82.58
43824;BME280;29470;53.550;9.926;2023-07-02T02:02:29;99874.97;;;19.07;83.54
43824;BME280;29470;53.550;9.926;2023-07-02T02:07:33;99872.09;;;18.96;83.93
43824;BME280;29470;53.550;9.926;2023-07-02T02:12:37;99887.19;;;19.06;83.02
43824;BME280;29470;53.550;9.926;2023-07-02T02:17:41;99884.41;;;18.98;83.75
43824;BME280;29470;53.550;9.926;2023-07-02T02:22:45;99878.50;;;19.09;82.88
43824;BME280;29470;53.550;9.926;2023-07-02T02:27:48;99882.41;;;18.88;84.25
43824;BME280;29470;53.550;9.926;2023-07-02T02:32:51;99882.75;;;18.64;85.27
43824;BME280;29470;53.550;9.926;2023-07-02T02:37:55;99889.84;;;19.08;82.39
43824;BME280;29470;53.550;9.926;2023-07-02T02:42:58;99874.31;;;19.17;81.66
43824;BME280;29470;53.550;9.926;2023-07-02T02:48:03;99881.22;;;19.13;81.18
43824;BME280;29470;53.550;9.926;2023-07-02T02:53:07;99883.22;;;18.46;85.50
43824;BME280;29470;53.550;9.926;2023-07-02T02:58:11;99896.16;;;18.39;87.13
43824;BME280;29470;53.550;9.926;2023-07-02T03:03:14;99893.41;;;18.33;85.49
43824;BME280;29470;53.550;9.926;2023-07-02T03:08:18;99894.47;;;18.42;86.05
43824;BME280;29470;53.550;9.926;2023-07-02T03:13:21;99888.25;;;18.75;84.01
43824;BME280;29470;53.550;9.926;2023-07-02T03:18:24;99889.88;;;18.69;84.59
43824;BME280;29470;53.550;9.926;2023-07-02T03:23:28;99886.25;;;18.64;83.26
43824;BME280;29470;53.550;9.926;2023-07-02T03:28:31;99890.44;;;18.56;83.10
43824;BME280;29470;53.550;9.926;2023-07-02T03:33:36;99892.34;;;18.63;83.54
43824;BME280;29470;53.550;9.926;2023-07-02T03:38:40;99904.16;;;18.46;83.60
43824;BME280;29470;53.550;9.926;2023-07-02T03:43:44;99878.19;;;18.55;81.53
43824;BME280;29470;53.550;9.926;2023-07-02T03:48:46;99884.13;;;18.88;80.02
43824;BME280;29470;53.550;9.926;2023-07-02T03:53:51;99888.81;;;18.61;80.75
43824;BME280;29470;53.550;9.926;2023-07-02T03:58:53;99891.84;;;18.81;78.72
43824;BME280;29470;53.550;9.926;2023-07-02T04:03:56;99888.81;;;18.99;76.96
43824;BME280;29470;53.550;9.926;2023-07-02T04:09:01;99891.84;;;18.81;77.63
43824;BME280;29470;53.550;9.926;2023-07-02T04:14:04;99901.53;;;19.24;75.50
43824;BME280;29470;53.550;9.926;2023-07-02T04:19:07;99901.19;;;19.07;75.52
43824;BME280;29470;53.550;9.926;2023-07-02T04:24:11;99903.34;;;19.26;75.12
43824;BME280;29470;53.550;9.926;2023-07-02T04:29:14;99909.91;;;19.07;74.77
43824;BME280;29470;53.550;9.926;2023-07-02T04:34:17;99903.69;;;19.02;75.36
43824;BME280;29470;53.550;9.926;2023-07-02T04:39:24;99905.75;;;19.62;72.25
43824;BME280;29470;53.550;9.926;2023-07-02T04:44:27;99904.38;;;19.82;71.17
43824;BME280;29470;53.550;9.926;2023-07-02T04:49:33;99915.13;;;19.50;71.57
43824;BME280;29470;53.550;9.926;2023-07-02T04:54:38;99911.44;;;19.39;72.26
43824;BME280;29470;53.550;9.926;2023-07-02T04:59:41;99918.56;;;19.46;71.05
43824;BME280;29470;53.550;9.926;2023-07-02T05:04:44;99913.66;;;19.63;70.04
43824;BME280;29470;53.550;9.926;2023-07-02T05:09:48;99905.22;;;19.80;69.73
43824;BME280;29470;53.550;9.926;2023-07-02T05:14:53;99912.19;;;19.78;69.49
43824;BME280;29470;53.550;9.926;2023-07-02T05:19:56;99901.19;;;19.99;67.74
43824;BME280;29470;53.550;9.926;2023-07-02T05:25:00;99903.13;;;20.09;67.67
43824;BME280;29470;53.550;9.926;2023-07-02T05:30:04;99905.13;;;19.75;67.31
43824;BME280;29470;53.550;9.926;2023-07-02T05:35:08;99907.31;;;19.98;66.98
43824;BME280;29470;53.550;9.926;2023-07-02T05:40:12;99908.28;;;20.58;64.76
43824;BME280;29470;53.550;9.926;2023-07-02T05:45:18;99907.59;;;20.70;64.56
43824;BME280;29470;53.550;9.926;2023-07-02T05:50:21;99911.41;;;20.91;62.51
43824;BME280;29470;53.550;9.926;2023-07-02T05:55:25;99921.03;;;20.89;61.84
43824;BME280;29470;53.550;9.926;2023-07-02T06:00:29;99910.72;;;20.46;63.48
43824;BME280;29470;53.550;9.926;2023-07-02T06:05:32;99917.38;;;20.79;63.53
43824;BME280;29470;53.550;9.926;2023-07-02T06:10:36;99907.22;;;21.06;62.31
43824;BME280;29470;53.550;9.926;2023-07-02T06:15:39;99916.47;;;21.46;60.80
43824;BME280;29470;53.550;9.926;2023-07-02T06:20:42;99908.59;;;22.39;57.51
43824;BME280;29470;53.550;9.926;2023-07-02T06:25:46;99908.03;;;22.80;55.30
43824;BME280;29470;53.550;9.926;2023-07-02T06:30:52;99905.03;;;22.31;55.70
43824;BME280;29470;53.550;9.926;2023-07-02T06:35:57;99920.19;;;22.61;55.69
43824;BME280;29470;53.550;9.926;2023-07-02T06:41:01;99917.75;;;22.91;53.83
43824;BME280;29470;53.550;9.926;2023-07-02T06:46:04;99929.59;;;22.31;55.49
43824;BME280;29470;53.550;9.926;2023-07-02T06:51:07;99929.94;;;22.70;54.50
43824;BME280;29470;53.550;9.926;2023-07-02T06:56:12;99942.59;;;23.43;52.55
43824;BME280;29470;53.550;9.926;2023-07-02T07:01:15;99946.00;;;23.20;52.82
43824;BME280;29470;53.550;9.926;2023-07-02T07:06:17;99944.56;;;24.00;51.35
43824;BME280;29470;53.550;9.926;2023-07-02T07:11:23;99945.38;;;23.97;50.48
43824;BME280;29470;53.550;9.926;2023-07-02T07:16:26;99950.66;;;23.92;50.47
43824;BME280;29470;53.550;9.926;2023-07-02T07:21:29;99957.06;;;22.58;52.88
43824;BME280;29470;53.550;9.926;2023-07-02T07:26:33;99965.94;;;22.70;56.30
43824;BME280;29470;53.550;9.926;2023-07-02T07:36:39;99983.72;;;21.97;58.55
43824;BME280;29470;53.550;9.926;2023-07-02T07:41:47;99967.09;;;22.02;55.84
43824;BME280;29470;53.550;9.926;2023-07-02T07:46:50;99983.59;;;22.82;51.73
43824;BME280;29470;53.550;9.926;2023-07-02T07:51:53;99978.75;;;23.59;49.24
43824;BME280;29470;53.550;9.926;2023-07-02T07:56:57;99970.56;;;27.79;39.94
43824;BME280;29470;53.550;9.926;2023-07-02T08:02:00;99961.22;;;31.04;34.02
43824;BME280;29470;53.550;9.926;2023-07-02T08:07:04;99972.34;;;29.36;34.87
43824;BME280;29470;53.550;9.926;2023-07-02T08:12:11;99980.28;;;32.13;31.19
43824;BME280;29470;53.550;9.926;2023-07-02T08:17:14;99974.63;;;29.54;33.54
43824;BME280;29470;53.550;9.926;2023-07-02T08:22:17;99982.78;;;26.24;38.93
43824;BME280;29470;53.550;9.926;2023-07-02T08:27:21;99987.63;;;23.78;41.63
43824;BME280;29470;53.550;9.926;2023-07-02T08:32:25;99982.28;;;25.54;38.88
43824;BME280;29470;53.550;9.926;2023-07-02T08:37:27;99983.50;;;26.43;36.57
43824;BME280;29470;53.550;9.926;2023-07-02T08:42:32;99983.75;;;26.03;37.71
43824;BME280;29470;53.550;9.926;2023-07-02T08:47:35;99989.50;;;24.82;38.14
43824;BME280;29470;53.550;9.926;2023-07-02T08:52:44;99987.63;;;23.83;39.32
43824;BME280;29470;53.550;9.926;2023-07-02T08:57:52;100012.25;;;23.80;40.45
43824;BME280;29470;53.550;9.926;2023-07-02T09:02:55;100001.81;;;24.55;39.69
43824;BME280;29470;53.550;9.926;2023-07-02T09:07:58;100019.47;;;24.67;39.65
43824;BME280;29470;53.550;9.926;2023-07-02T09:13:07;100037.06;;;24.31;41.23
43824;BME280;29470;53.550;9.926;2023-07-02T09:18:17;100058.19;;;22.73;43.19
43824;BME280;29470;53.550;9.926;2023-07-02T09:23:21;100074.31;;;22.16;45.29
43824;BME280;29470;53.550;9.926;2023-07-02T09:28:25;100074.09;;;21.31;49.13
43824;BME280;29470;53.550;9.926;2023-07-02T09:33:28;100096.81;;;21.27;49.46
43824;BME280;29470;53.550;9.926;2023-07-02T09:38:32;100088.09;;;21.93;50.45
43824;BME280;29470;53.550;9.926;2023-07-02T09:43:36;100071.22;;;23.81;43.63
43824;BME280;29470;53.550;9.926;2023-07-02T09:48:39;100062.44;;;23.90;42.13
43824;BME280;29470;53.550;9.926;2023-07-02T09:53:42;100062.31;;;23.56;42.72
43824;BME280;29470;53.550;9.926;2023-07-02T09:58:46;100066.44;;;23.18;42.37
43824;BME280;29470;53.550;9.926;2023-07-02T10:03:50;100070.81;;;23.13;42.97
43824;BME280;29470;53.550;9.926;2023-07-02T10:08:53;100077.81;;;23.06;43.37
43824;BME280;29470;53.550;9.926;2023-07-02T10:14:00;100068.59;;;23.79;43.17
43824;BME280;29470;53.550;9.926;2023-07-02T10:19:10;100062.66;;;25.00;41.46
43824;BME280;29470;53.550;9.926;2023-07-02T10:24:13;100069.50;;;23.94;42.75
43824;BME280;29470;53.550;9.926;2023-07-02T10:29:19;100075.09;;;22.95;43.95
43824;BME280;29470;53.550;9.926;2023-07-02T10:34:30;100080.81;;;22.49;45.00
43824;BME280;29470;53.550;9.926;2023-07-02T10:39:38;100096.63;;;22.47;44.95
43824;BME280;29470;53.550;9.926;2023-07-02T10:44:50;100100.25;;;21.83;47.37
43824;BME280;29470;53.550;9.926;2023-07-02T10:49:53;100119.03;;;22.13;47.43
43824;BME280;29470;53.550;9.926;2023-07-02T10:54:56;100136.59;;;20.92;49.38
43824;BME280;29470;53.550;9.926;2023-07-02T11:00:05;100116.56;;;22.27;45.89
43824;BME280;29470;53.550;9.926;2023-07-02T11:05:09;100102.19;;;22.75;44.27
43824;BME280;29470;53.550;9.926;2023-07-02T11:10:20;100097.22;;;23.19;44.01
43824;BME280;29470;53.550;9.926;2023-07-02T11:15:24;100090.47;;;23.61;43.40
43824;BME280;29470;53.550;9.926;2023-07-02T11:20:33;100097.91;;;24.90;41.75
43824;BME280;29470;53.550;9.926;2023-07-02T11:25:36;100100.16;;;23.59;41.89
43824;BME280;29470;53.550;9.926;2023-07-02T11:30:46;100102.31;;;24.81;40.52
43824;BME280;29470;53.550;9.926;2023-07-02T11:35:49;100092.56;;;24.31;39.04
43824;BME280;29470;53.550;9.926;2023-07-02T11:40:52;100089.94;;;25.39;38.81
43824;BME280;29470;53.550;9.926;2023-07-02T11:45:56;100093.44;;;25.63;38.74
43824;BME280;29470;53.550;9.926;2023-07-02T11:50:59;100101.44;;;24.75;37.60
43824;BME280;29470;53.550;9.926;2023-07-02T11:56:02;100103.94;;;24.11;38.15
43824;BME280;29470;53.550;9.926;2023-07-02T12:01:06;100124.25;;;24.32;38.49
43824;BME280;29470;53.550;9.926;2023-07-02T12:06:09;100131.50;;;23.14;39.57
43824;BME280;29470;53.550;9.926;2023-07-02T12:11:12;100128.28;;;23.52;39.85
43824;BME280;29470;53.550;9.926;2023-07-02T12:16:16;100128.38;;;23.73;39.87
43824;BME280;29470;53.550;9.926;2023-07-02T12:21:19;100137.25;;;23.82;39.90
43824;BME280;29470;53.550;9.926;2023-07-02T12:26:22;100137.22;;;23.76;39.65
43824;BME280;29470;53.550;9.926;2023-07-02T12:31:26;100136.91;;;23.31;40.74
43824;BME280;29470;53.550;9.926;2023-07-02T12:36:29;100147.78;;;23.79;39.56
43824;BME280;29470;53.550;9.926;2023-07-02T12:41:32;100133.72;;;23.80;40.41
43824;BME280;29470;53.550;9.926;2023-07-02T12:46:37;100144.59;;;24.56;38.94
43824;BME280;29470;53.550;9.926;2023-07-02T12:51:40;100147.78;;;23.86;39.43
43824;BME280;29470;53.550;9.926;2023-07-02T12:56:43;100156.63;;;23.86;39.88
43824;BME280;29470;53.550;9.926;2023-07-02T13:01:47;100168.84;;;23.70;38.80
43824;BME280;29470;53.550;9.926;2023-07-02T13:06:50;100183.47;;;23.26;40.76
43824;BME280;29470;53.550;9.926;2023-07-02T13:11:54;100186.47;;;23.76;40.58
43824;BME280;29470;53.550;9.926;2023-07-02T13:16:58;100184.91;;;22.90;40.91
43824;BME280;29470;53.550;9.926;2023-07-02T13:22:01;100193.88;;;23.10;40.18
43824;BME280;29470;53.550;9.926;2023-07-02T13:27:09;100194.41;;;22.74;40.65
43824;BME280;29470;53.550;9.926;2023-07-02T13:32:15;100186.72;;;22.97;40.94
43824;BME280;29470;53.550;9.926;2023-07-02T13:37:17;100184.34;;;23.23;40.29
43824;BME280;29470;53.550;9.926;2023-07-02T13:42:20;100198.47;;;23.30;40.16
43824;BME280;29470;53.550;9.926;2023-07-02T13:47:25;100193.38;;;23.50;39.44
43824;BME280;29470;53.550;9.926;2023-07-02T13:52:30;100198.22;;;23.04;39.84
43824;BME280;29470;53.550;9.926;2023-07-02T13:57:33;100201.63;;;22.93;39.19
43824;BME280;29470;53.550;9.926;2023-07-02T14:02:37;100216.09;;;23.34;38.89
43824;BME280;29470;53.550;9.926;2023-07-02T14:07:40;100210.25;;;23.76;39.79
43824;BME280;29470;53.550;9.926;2023-07-02T14:12:43;100198.00;;;23.90;39.09
43824;BME280;29470;53.550;9.926;2023-07-02T14:17:47;100210.88;;;23.41;40.02
43824;BME280;29470;53.550;9.926;2023-07-02T14:22:50;100209.19;;;23.47;38.25
43824;BME280;29470;53.550;9.926;2023-07-02T14:27:53;100222.50;;;23.67;37.81
43824;BME280;29470;53.550;9.926;2023-07-02T14:32:57;100231.16;;;23.48;38.57
43824;BME280;29470;53.550;9.926;2023-07-02T14:38:00;100222.50;;;23.66;38.25
43824;BME280;29470;53.550;9.926;2023-07-02T14:43:03;100220.38;;;24.68;37.50
43824;BME280;29470;53.550;9.926;2023-07-02T14:48:08;100227.91;;;23.81;37.30
43824;BME280;29470;53.550;9.926;2023-07-02T14:53:11;100241.25;;;23.01;39.22
43824;BME280;29470;53.550;9.926;2023-07-02T14:58:15;100234.38;;;24.32;37.51
43824;BME280;29470;53.550;9.926;2023-07-02T15:03:31;100226.44;;;24.33;38.41
43824;BME280;29470;53.550;9.926;2023-07-02T15:08:58;100237.75;;;24.06;38.93
43824;BME280;29470;53.550;9.926;2023-07-02T15:14:02;100237.41;;;23.59;39.40
43824;BME280;29470;53.550;9.926;2023-07-02T15:19:14;100232.31;;;23.82;38.42
43824;BME280;29470;53.550;9.926;2023-07-02T15:24:26;100244.81;;;24.10;37.67
43824;BME280;29470;53.550;9.926;2023-07-02T15:29:29;100245.75;;;24.18;37.46
43824;BME280;29470;53.550;9.926;2023-07-02T15:34:33;100231.19;;;23.51;38.18
43824;BME280;29470;53.550;9.926;2023-07-02T15:39:35;100246.53;;;23.01;39.03
43824;BME280;29470;53.550;9.926;2023-07-02T15:44:38;100261.94;;;23.47;39.21
43824;BME280;29470;53.550;9.926;2023-07-02T15:49:43;100241.69;;;22.61;39.99
43824;BME280;29470;53.550;9.926;2023-07-02T15:54:46;100263.28;;;23.05;40.01
43824;BME280;29470;53.550;9.926;2023-07-02T15:59:49;100265.25;;;22.47;40.75
43824;BME280;29470;53.550;9.926;2023-07-02T16:04:53;100260.53;;;22.94;40.60
43824;BME280;29470;53.550;9.926;2023-07-02T16:10:03;100263.66;;;23.42;39.67
43824;BME280;29470;53.550;9.926;2023-07-02T16:15:09;100273.28;;;22.58;40.54
43824;BME280;29470;53.550;9.926;2023-07-02T16:20:13;100271.66;;;22.70;40.45
43824;BME280;29470;53.550;9.926;2023-07-02T16:25:16;100265.50;;;22.66;40.87
43824;BME280;29470;53.550;9.926;2023-07-02T16:30:23;100285.16;;;22.93;40.15
43824;BME280;29470;53.550;9.926;2023-07-02T16:35:28;100278.44;;;22.47;39.95
43824;BME280;29470;53.550;9.926;2023-07-02T16:40:32;100282.56;;;23.01;40.06
43824;BME280;29470;53.550;9.926;2023-07-02T16:45:34;100295.81;;;23.07;39.71
43824;BME280;29470;53.550;9.926;2023-07-02T16:50:38;100295.66;;;22.90;39.85
43824;BME280;29470;53.550;9.926;2023-07-02T16:55:41;100302.88;;;23.09;40.53
43824;BME280;29470;53.550;9.926;2023-07-02T17:00:46;100296.63;;;22.32;41.58
43824;BME280;29470;53.550;9.926;2023-07-02T17:11:59;100306.47;;;21.84;42.89
43824;BME280;29470;53.550;9.926;2023-07-02T17:17:05;100320.44;;;21.80;42.59
43824;BME280;29470;53.550;9.926;2023-07-02T17:22:14;100322.75;;;22.16;41.76
43824;BME280;29470;53.550;9.926;2023-07-02T17:33:11;100326.53;;;22.35;42.13
43824;BME280;29470;53.550;9.926;2023-07-02T17:38:17;100333.28;;;22.18;42.80
43824;BME280;29470;53.550;9.926;2023-07-02T17:43:25;100320.31;;;22.30;42.14
43824;BME280;29470;53.550;9.926;2023-07-02T17:48:28;100331.41;;;22.07;42.15
43824;BME280;29470;53.550;9.926;2023-07-02T17:53:52;100326.00;;;21.98;42.23
43824;BME280;29470;53.550;9.926;2023-07-02T18:06:12;100336.25;;;21.81;42.63
43824;BME280;29470;53.550;9.926;2023-07-02T18:11:20;100339.34;;;21.11;43.48
43824;BME280;29470;53.550;9.926;2023-07-02T18:16:25;100323.91;;;21.29;43.14
43824;BME280;29470;53.550;9.926;2023-07-02T18:21:31;100339.91;;;20.96;43.46
43824;BME280;29470;53.550;9.926;2023-07-02T18:26:35;100328.47;;;20.92;43.79
43824;BME280;29470;53.550;9.926;2023-07-02T18:32:10;100333.69;;;20.90;44.29
43824;BME280;29470;53.550;9.926;2023-07-02T18:37:52;100330.91;;;20.84;43.99
43824;BME280;29470;53.550;9.926;2023-07-02T18:43:43;100331.59;;;21.17;43.64
43824;BME280;29470;53.550;9.926;2023-07-02T18:50:14;100338.38;;;21.06;43.66
43824;BME280;29470;53.550;9.926;2023-07-02T18:56:23;100330.50;;;20.66;44.10
43824;BME280;29470;53.550;9.926;2023-07-02T19:02:40;100339.28;;;20.26;44.85
43824;BME280;29470;53.550;9.926;2023-07-02T19:15:59;100339.56;;;19.67;46.24
43824;BME280;29470;53.550;9.926;2023-07-02T19:21:56;100326.44;;;20.00;46.23
43824;BME280;29470;53.550;9.926;2023-07-02T19:28:17;100326.09;;;20.23;46.17
43824;BME280;29470;53.550;9.926;2023-07-02T19:34:34;100330.59;;;20.29;46.38
43824;BME280;29470;53.550;9.926;2023-07-02T19:47:43;100340.16;;;20.27;46.57
43824;BME280;29470;53.550;9.926;2023-07-02T19:59:34;100345.75;;;20.04;47.07
43824;BME280;29470;53.550;9.926;2023-07-02T20:04:38;100338.22;;;20.18;46.98
43824;BME280;29470;53.550;9.926;2023-07-02T20:09:41;100334.69;;;20.17;46.84
43824;BME280;29470;53.550;9.926;2023-07-02T20:14:45;100341.22;;;19.97;46.71
43824;BME280;29470;53.550;9.926;2023-07-02T20:19:50;100334.47;;;20.07;47.37
43824;BME280;29470;53.550;9.926;2023-07-02T20:25:03;100333.69;;;20.12;46.28
43824;BME280;29470;53.550;9.926;2023-07-02T20:58:01;100331.84;;;19.73;46.07
43824;BME280;29470;53.550;9.926;2023-07-02T21:03:04;100325.13;;;19.84;46.19
43824;BME280;29470;53.550;9.926;2023-07-02T21:08:07;100328.13;;;19.98;46.28
43824;BME280;29470;53.550;9.926;2023-07-02T21:20:54;100324.19;;;19.82;47.46
43824;BME280;29470;53.550;9.926;2023-07-02T21:27:22;100327.72;;;19.48;47.79
43824;BME280;29470;53.550;9.926;2023-07-02T21:58:31;100320.34;;;19.01;50.67
43824;BME280;29470;53.550;9.926;2023-07-02T22:18:01;100300.38;;;19.38;50.38
43824;BME280;29470;53.550;9.926;2023-07-02T22:23:05;100297.94;;;19.12;51.26
43824;BME280;29470;53.550;9.926;2023-07-02T22:28:08;100285.28;;;19.29;50.84
43824;BME280;29470;53.550;9.926;2023-07-02T22:33:23;100280.44;;;19.46;50.37
43824;BME280;29470;53.550;9.926;2023-07-02T22:38:26;100274.44;;;19.15;50.57
43824;BME280;29470;53.550;9.926;2023-07-02T22:43:34;100273.41;;;19.10;51.03
43824;BME280;29470;53.550;9.926;2023-07-02T22:48:45;100269.19;;;19.15;50.97
43824;BME280;29470;53.550;9.926;2023-07-02T22:53:48;100277.41;;;18.97;51.57
43824;BME280;29470;53.550;9.926;2023-07-02T22:58:51;100271.28;;;19.28;50.64
43824;BME280;29470;53.550;9.926;2023-07-02T23:03:57;100257.50;;;18.73;51.25
43824;BME280;29470;53.550;9.926;2023-07-02T23:09:10;100255.91;;;18.78;51.29
43824;BME280;29470;53.550;9.926;2023-07-02T23:14:13;100252.59;;;18.84;51.31
43824;BME280;29470;53.550;9.926;2023-07-02T23:19:17;100237.13;;;18.93;51.08
43824;BME280;29470;53.550;9.926;2023-07-02T23:24:21;100243.63;;;18.76;51.54
43824;BME280;29470;53.550;9.926;2023-07-02T23:29:24;100238.91;;;18.64;51.77
43824;BME280;29470;53.550;9.926;2023-07-02T23:34:29;100236.31;;;18.33;51.88
43824;BME280;29470;53.550;9.926;2023-07-02T23:39:40;100236.69;;;18.46;52.20
43824;BME280;29470;53.550;9.926;2023-07-02T23:44:45;100236.31;;;18.04;52.83
43824;BME280;29470;53.550;9.926;2023-07-02T23:49:49;100220.50;;;18.30;52.66
43824;BME280;29470;53.550;9.926;2023-07-02T23:54:52;100222.75;;;18.16;53.07
43824;BME280;29470;53.550;9.926;2023-07-02T23:59:55;100219.88;;;18.08;53.09
